createdAt,value
2022-09-12T00:02:08.898Z,100.00
2022-09-12T00:04:36.626Z,100.00
2022-09-12T00:07:04.416Z,100.00
2022-09-12T00:09:32.427Z,100.00
2022-09-12T00:12:00.225Z,100.00
2022-09-12T00:14:27.935Z,100.00
2022-09-12T00:16:59.259Z,100.00
2022-09-12T00:19:27.275Z,100.00
2022-09-12T00:21:55.097Z,100.00
2022-09-12T00:24:23.411Z,100.00
2022-09-12T00:26:51.126Z,100.00
2022-09-12T00:29:22.589Z,100.00
2022-09-12T00:31:50.547Z,100.00
2022-09-12T00:34:19.610Z,100.00
2022-09-12T00:36:47.407Z,100.00
2022-09-12T00:39:17.772Z,100.00
2022-09-12T00:41:45.566Z,100.00
2022-09-12T00:44:45.425Z,100.00
2022-09-12T00:47:17.820Z,100.00
2022-09-12T00:49:51.205Z,100.00
2022-09-12T00:52:25.384Z,100.00
2022-09-12T00:54:57.549Z,100.00
2022-09-12T00:57:29.571Z,100.00
2022-09-12T01:00:00.555Z,100.00
2022-09-12T01:02:29.095Z,100.00
2022-09-12T01:04:58.424Z,100.00
2022-09-12T01:07:26.152Z,100.00
2022-09-12T01:09:54.208Z,100.00
2022-09-12T01:12:22.470Z,100.00
2022-09-12T01:14:50.363Z,100.00
2022-09-12T01:17:18.084Z,100.00
2022-09-12T01:20:09.767Z,100.00
2022-09-12T01:23:03.508Z,100.00
2022-09-12T01:25:35.575Z,100.00
2022-09-12T01:28:25.575Z,100.00
2022-09-12T01:31:01.274Z,100.00
2022-09-12T01:33:56.422Z,100.00
2022-09-12T01:36:35.768Z,100.00
2022-09-12T01:39:06.153Z,100.00
2022-09-12T01:41:44.669Z,100.00
2022-09-12T01:44:24.037Z,100.00
2022-09-12T01:46:58.820Z,100.00
2022-09-12T01:49:30.486Z,100.00
2022-09-12T01:52:02.362Z,100.00
2022-09-12T01:54:36.975Z,100.00
2022-09-12T01:57:12.145Z,100.00
2022-09-12T01:59:44.748Z,100.00
2022-09-12T02:02:17.923Z,100.00
2022-09-12T02:04:52.194Z,100.00
2022-09-12T02:07:24.687Z,100.00
2022-09-12T02:09:55.927Z,100.00
2022-09-12T02:12:30.494Z,100.00
2022-09-12T02:15:03.273Z,100.00
2022-09-12T02:17:37.602Z,100.00
2022-09-12T02:20:17.767Z,100.00
2022-09-12T02:23:01.567Z,100.00
2022-09-12T02:25:30.870Z,100.00
2022-09-12T02:28:05.365Z,100.00
2022-09-12T02:30:40.899Z,100.00
2022-09-12T02:33:14.553Z,100.00
2022-09-12T02:35:50.336Z,100.00
2022-09-12T02:38:25.767Z,100.00
2022-09-12T02:40:53.831Z,100.00
2022-09-12T02:43:21.657Z,100.00
2022-09-12T02:45:49.544Z,100.00
2022-09-12T02:48:23.503Z,100.00
2022-09-12T02:50:51.524Z,100.00
2022-09-12T02:53:20.164Z,100.00
2022-09-12T02:55:48.315Z,100.00
2022-09-12T02:58:19.397Z,100.00
2022-09-12T03:00:53.106Z,100.00
2022-09-12T03:03:44.077Z,100.00
2022-09-12T03:06:19.225Z,100.00
2022-09-12T03:09:00.308Z,100.00
2022-09-12T03:12:00.533Z,100.00
2022-09-12T03:14:43.764Z,100.00
2022-09-12T03:17:22.693Z,100.00
2022-09-12T03:20:00.587Z,100.00
2022-09-12T03:22:34.951Z,100.00
2022-09-12T03:25:12.345Z,100.00
2022-09-12T03:27:46.865Z,100.00
2022-09-12T03:30:14.618Z,100.00
2022-09-12T03:32:47.675Z,100.00
2022-09-12T03:35:22.707Z,100.00
2022-09-12T03:37:51.731Z,100.00
2022-09-12T03:40:19.911Z,100.00
2022-09-12T03:42:47.714Z,100.00
2022-09-12T03:45:16.566Z,100.00
2022-09-12T03:47:44.437Z,100.00
2022-09-12T03:50:12.486Z,100.00
2022-09-12T03:52:41.853Z,100.00
2022-09-12T03:55:09.951Z,100.00
2022-09-12T03:57:37.828Z,100.00
2022-09-12T04:00:07.290Z,100.00
2022-09-12T04:02:40.386Z,100.00
2022-09-12T04:05:08.494Z,100.00
2022-09-12T04:07:36.429Z,100.00
2022-09-12T04:10:06.303Z,100.00
2022-09-12T04:12:35.592Z,100.00
2022-09-12T04:15:03.421Z,100.00
2022-09-12T04:17:31.596Z,100.00
2022-09-12T04:19:59.350Z,100.00
2022-09-12T04:22:27.376Z,100.00
2022-09-12T04:24:55.336Z,100.00
2022-09-12T04:27:24.528Z,100.00
2022-09-12T04:29:53.382Z,100.00
2022-09-12T04:32:22.161Z,100.00
2022-09-12T04:34:49.974Z,100.00
2022-09-12T04:37:18.023Z,100.00
2022-09-12T04:39:45.795Z,100.00
2022-09-12T04:42:13.551Z,100.00
2022-09-12T04:44:42.735Z,100.00
2022-09-12T04:47:10.482Z,100.00
2022-09-12T04:49:38.267Z,100.00
2022-09-12T04:52:06.350Z,100.00
2022-09-12T04:54:34.227Z,100.00
2022-09-12T04:57:01.945Z,100.00
2022-09-12T04:59:30.157Z,100.00
2022-09-12T05:01:59.276Z,100.00
2022-09-12T05:04:27.048Z,100.00
2022-09-12T05:06:54.756Z,100.00
2022-09-12T05:09:22.471Z,100.00
2022-09-12T05:12:05.963Z,100.00
2022-09-12T05:14:34.899Z,100.00
2022-09-12T05:17:05.925Z,100.00
2022-09-12T05:19:33.964Z,100.00
2022-09-12T05:22:01.741Z,100.00
2022-09-12T05:24:29.434Z,100.00
2022-09-12T05:26:57.257Z,100.00
2022-09-12T05:29:25.580Z,100.00
2022-09-12T05:31:53.411Z,100.00
2022-09-12T05:34:23.313Z,100.00
2022-09-12T05:36:51.107Z,100.00
2022-09-12T05:39:18.806Z,100.00
2022-09-12T05:41:47.264Z,100.00
2022-09-12T05:44:15.796Z,100.00
2022-09-12T05:46:45.194Z,100.00
2022-09-12T05:49:14.606Z,100.00
2022-09-12T05:51:46.080Z,100.00
2022-09-12T05:54:17.793Z,100.00
2022-09-12T05:56:46.132Z,100.00
2022-09-12T05:59:15.592Z,99.21
2022-09-12T06:01:43.882Z,96.42
2022-09-12T06:04:12.306Z,94.33
2022-09-12T06:06:43.430Z,93.28
2022-09-12T06:09:13.485Z,91.43
2022-09-12T06:11:41.823Z,90.28
2022-09-12T06:14:10.785Z,90.82
2022-09-12T06:16:39.262Z,89.45
2022-09-12T06:19:08.564Z,88.04
2022-09-12T06:21:37.762Z,89.28
2022-09-12T06:24:05.656Z,89.53
2022-09-12T06:26:34.922Z,89.94
2022-09-12T06:29:02.952Z,89.93
2022-09-12T06:31:33.129Z,88.06
2022-09-12T06:34:02.581Z,87.05
2022-09-12T06:36:32.385Z,86.73
2022-09-12T06:39:02.236Z,86.98
2022-09-12T06:41:31.191Z,85.83
2022-09-12T06:44:01.080Z,84.64
2022-09-12T06:46:30.884Z,83.96
2022-09-12T06:49:00.546Z,81.47
2022-09-12T06:51:29.423Z,81.62
2022-09-12T06:53:58.500Z,80.65
2022-09-12T06:56:28.427Z,80.47
2022-09-12T06:58:57.761Z,79.70
2022-09-12T07:01:29.069Z,79.42
2022-09-12T07:03:58.749Z,80.26
2022-09-12T07:06:31.788Z,79.84
2022-09-12T07:09:00.890Z,78.35
2022-09-12T07:11:31.795Z,76.54
2022-09-12T07:14:00.704Z,77.69
2022-09-12T07:16:30.601Z,76.51
2022-09-12T07:18:59.508Z,77.12
2022-09-12T07:21:27.992Z,78.58
2022-09-12T07:23:57.766Z,77.47
2022-09-12T07:26:26.403Z,78.12
2022-09-12T07:29:00.691Z,78.24
2022-09-12T07:31:42.309Z,75.61
2022-09-12T07:34:10.214Z,75.59
2022-09-12T07:36:39.102Z,74.75
2022-09-12T07:39:06.985Z,74.33
2022-09-12T07:41:34.979Z,74.06
2022-09-12T07:44:04.478Z,74.27
2022-09-12T07:46:33.288Z,73.39
2022-09-12T07:49:03.050Z,74.68
2022-09-12T07:51:31.943Z,74.95
2022-09-12T07:54:00.350Z,71.85
2022-09-12T07:56:32.036Z,70.21
2022-09-12T07:59:02.537Z,70.65
2022-09-12T08:01:30.933Z,70.55
2022-09-12T08:03:59.945Z,71.04
2022-09-12T08:06:33.706Z,68.44
2022-09-12T08:09:01.895Z,67.26
2022-09-12T08:11:30.827Z,66.96
2022-09-12T08:13:59.096Z,67.04
2022-09-12T08:16:30.271Z,65.77
2022-09-12T08:18:58.400Z,63.85
2022-09-12T08:21:28.515Z,63.71
2022-09-12T08:24:00.675Z,62.22
2022-09-12T08:26:28.770Z,61.80
2022-09-12T08:28:56.523Z,61.42
2022-09-12T08:31:26.716Z,60.57
2022-09-12T08:33:57.400Z,60.79
2022-09-12T08:36:27.972Z,62.97
2022-09-12T08:38:59.992Z,64.54
2022-09-12T08:41:32.819Z,65.23
2022-09-12T08:44:27.210Z,64.56
2022-09-12T08:47:12.377Z,64.45
2022-09-12T08:49:48.901Z,65.65
2022-09-12T08:52:22.936Z,62.49
2022-09-12T08:54:52.262Z,62.58
2022-09-12T08:57:20.295Z,60.85
2022-09-12T08:59:48.328Z,61.36
2022-09-12T09:02:46.922Z,62.09
2022-09-12T09:05:23.226Z,61.30
2022-09-12T09:08:10.625Z,60.02
2022-09-12T09:10:48.800Z,58.74
2022-09-12T09:13:42.195Z,59.56
2022-09-12T09:16:15.670Z,58.36
2022-09-12T09:18:45.519Z,58.47
2022-09-12T09:21:22.525Z,57.54
2022-09-12T09:23:56.037Z,55.81
2022-09-12T09:26:31.606Z,53.72
2022-09-12T09:29:04.219Z,53.33
2022-09-12T09:31:38.527Z,52.66
2022-09-12T09:34:16.133Z,51.49
2022-09-12T09:36:51.442Z,51.84
2022-09-12T09:39:35.484Z,49.12
2022-09-12T09:42:16.958Z,49.40
2022-09-12T09:44:48.283Z,47.40
2022-09-12T09:47:16.762Z,48.71
2022-09-12T09:49:44.503Z,48.01
2022-09-12T09:52:16.244Z,48.41
2022-09-12T09:54:49.422Z,46.97
2022-09-12T09:57:41.009Z,43.45
2022-09-12T10:00:25.770Z,43.89
2022-09-12T10:03:23.267Z,42.32
2022-09-12T10:05:53.074Z,41.74
2022-09-12T10:08:22.864Z,42.22
2022-09-12T10:10:59.573Z,42.04
2022-09-12T10:13:36.262Z,40.29
2022-09-12T10:16:06.577Z,40.56
2022-09-12T10:18:42.307Z,42.68
2022-09-12T10:21:20.639Z,42.17
2022-09-12T10:23:52.346Z,41.27
2022-09-12T10:26:21.650Z,40.65
2022-09-12T10:28:54.467Z,38.27
2022-09-12T10:31:29.058Z,37.60
2022-09-12T10:34:00.160Z,36.63
2022-09-12T10:36:38.403Z,36.66
2022-09-12T10:39:07.039Z,35.83
2022-09-12T10:41:40.446Z,35.31
2022-09-12T10:44:16.617Z,37.26
2022-09-12T10:46:44.599Z,37.45
2022-09-12T10:49:31.370Z,38.72
2022-09-12T10:52:17.837Z,38.37
2022-09-12T10:54:46.440Z,37.14
2022-09-12T10:57:44.044Z,36.14
2022-09-12T11:00:17.445Z,36.02
2022-09-12T11:03:07.455Z,35.44
2022-09-12T11:05:55.216Z,35.92
2022-09-12T11:08:59.502Z,34.78
2022-09-12T11:11:51.526Z,36.05
2022-09-12T11:14:31.726Z,33.72
2022-09-12T11:17:13.646Z,35.51
2022-09-12T11:20:17.154Z,35.86
2022-09-12T11:23:11.844Z,34.80
2022-09-12T11:25:48.451Z,34.62
2022-09-12T11:28:28.211Z,34.77
2022-09-12T11:31:13.846Z,35.13
2022-09-12T11:33:46.316Z,35.27
2022-09-12T11:36:28.218Z,36.63
2022-09-12T11:39:15.349Z,34.82
2022-09-12T11:41:47.917Z,34.09
2022-09-12T11:44:23.046Z,32.82
2022-09-12T11:46:52.092Z,32.63
2022-09-12T11:49:34.773Z,32.07
2022-09-12T11:52:08.152Z,30.75
2022-09-12T11:54:43.255Z,32.80
2022-09-12T11:57:18.290Z,32.53
2022-09-12T11:59:52.805Z,32.53
2022-09-12T12:02:27.647Z,30.06
2022-09-12T12:05:15.986Z,30.58
2022-09-12T12:07:52.387Z,30.54
2022-09-12T12:10:28.344Z,30.66
2022-09-12T12:12:58.440Z,32.55
2022-09-12T12:15:28.358Z,34.50
2022-09-12T12:18:08.748Z,34.69
2022-09-12T12:20:38.050Z,34.34
2022-09-12T12:23:05.830Z,32.47
2022-09-12T12:25:42.935Z,32.67
2022-09-12T12:28:10.740Z,31.85
2022-09-12T12:31:03.301Z,31.28
2022-09-12T12:34:16.302Z,31.13
2022-09-12T12:36:48.960Z,31.87
2022-09-12T12:40:00.770Z,31.14
2022-09-12T12:43:31.910Z,32.33
2022-09-12T12:46:12.402Z,31.17
2022-09-12T12:49:03.298Z,32.12
2022-09-12T12:51:56.950Z,32.26
2022-09-12T12:54:34.131Z,32.27
2022-09-12T12:57:04.359Z,31.76
2022-09-12T12:59:32.498Z,32.46
2022-09-12T13:02:01.746Z,33.26
2022-09-12T13:04:33.934Z,33.80
2022-09-12T13:07:08.506Z,33.30
2022-09-12T13:09:40.527Z,34.20
2022-09-12T13:12:12.279Z,33.42
2022-09-12T13:14:59.352Z,32.91
2022-09-12T13:17:31.730Z,32.91
2022-09-12T13:20:28.409Z,32.74
2022-09-12T13:22:58.873Z,32.64
2022-09-12T13:25:30.614Z,32.79
2022-09-12T13:28:06.035Z,32.45
2022-09-12T13:30:35.636Z,33.25
2022-09-12T13:33:17.761Z,32.58
2022-09-12T13:36:09.736Z,33.51
2022-09-12T13:38:51.409Z,34.62
2022-09-12T13:41:37.709Z,33.61
2022-09-12T13:44:10.013Z,32.80
2022-09-12T13:46:38.332Z,32.71
2022-09-12T13:49:16.942Z,33.04
2022-09-12T13:51:44.849Z,33.75
2022-09-12T13:54:23.911Z,35.56
2022-09-12T13:56:52.388Z,34.69
2022-09-12T13:59:20.155Z,35.07
2022-09-12T14:01:49.197Z,34.24
2022-09-12T14:04:37.491Z,34.90
2022-09-12T14:07:14.620Z,35.24
2022-09-12T14:09:45.499Z,35.54
2022-09-12T14:12:20.510Z,36.27
2022-09-12T14:14:50.936Z,34.98
2022-09-12T14:17:23.788Z,34.60
2022-09-12T14:19:52.585Z,34.66
2022-09-12T14:22:20.597Z,34.21
2022-09-12T14:24:51.752Z,32.87
2022-09-12T14:27:23.864Z,34.47
2022-09-12T14:29:53.869Z,35.06
2022-09-12T14:32:25.056Z,35.56
2022-09-12T14:35:06.259Z,35.77
2022-09-12T14:37:34.116Z,36.30
2022-09-12T14:40:04.941Z,36.41
2022-09-12T14:42:33.532Z,36.86
2022-09-12T14:45:03.349Z,35.88
2022-09-12T14:47:39.576Z,36.45
2022-09-12T14:50:17.467Z,36.66
2022-09-12T14:52:45.555Z,36.46
2022-09-12T14:55:33.706Z,36.94
2022-09-12T14:58:17.369Z,37.42
2022-09-12T15:01:00.311Z,38.19
2022-09-12T15:03:31.786Z,38.51
2022-09-12T15:06:01.169Z,37.43
2022-09-12T15:08:28.969Z,37.02
2022-09-12T15:10:58.958Z,37.87
2022-09-12T15:13:27.998Z,38.14
2022-09-12T15:15:57.224Z,37.91
2022-09-12T15:18:26.897Z,37.99
2022-09-12T15:20:56.892Z,37.98
2022-09-12T15:23:33.058Z,37.77
2022-09-12T15:26:02.405Z,37.56
2022-09-12T15:28:32.137Z,37.80
2022-09-12T15:31:06.802Z,37.45
2022-09-12T15:33:34.529Z,37.79
2022-09-12T15:36:02.496Z,37.55
2022-09-12T15:38:30.232Z,37.76
2022-09-12T15:40:58.271Z,38.12
2022-09-12T15:43:27.312Z,38.55
2022-09-12T15:45:55.413Z,38.80
2022-09-12T15:48:23.399Z,39.05
2022-09-12T15:50:51.109Z,39.67
2022-09-12T15:53:19.235Z,39.60
2022-09-12T15:55:46.946Z,39.20
2022-09-12T15:58:14.729Z,39.79
2022-09-12T16:00:43.861Z,40.22
2022-09-12T16:03:22.640Z,40.18
2022-09-12T16:05:51.476Z,40.74
2022-09-12T16:08:19.267Z,39.54
2022-09-12T16:10:50.624Z,39.66
2022-09-12T16:13:18.370Z,40.48
2022-09-12T16:15:47.494Z,41.12
2022-09-12T16:18:15.770Z,41.30
2022-09-12T16:20:43.897Z,40.79
2022-09-12T16:23:12.987Z,40.95
2022-09-12T16:25:40.974Z,41.46
2022-09-12T16:28:08.828Z,41.83
2022-09-12T16:30:37.217Z,41.88
2022-09-12T16:33:06.580Z,41.98
2022-09-12T16:35:34.317Z,42.29
2022-09-12T16:38:02.384Z,42.27
2022-09-12T16:40:31.042Z,41.97
2022-09-12T16:42:58.782Z,41.94
2022-09-12T16:45:26.620Z,42.87
2022-09-12T16:47:54.309Z,42.39
2022-09-12T16:50:23.754Z,42.56
2022-09-12T16:52:51.565Z,43.17
2022-09-12T16:55:19.270Z,42.81
2022-09-12T16:57:49.297Z,42.78
2022-09-12T17:00:17.413Z,42.59
2022-09-12T17:02:45.306Z,43.44
2022-09-12T17:05:13.407Z,43.41
2022-09-12T17:07:43.039Z,43.48
2022-09-12T17:10:11.253Z,42.68
2022-09-12T17:12:38.995Z,42.81
2022-09-12T17:15:08.080Z,43.48
2022-09-12T17:17:35.773Z,42.67
2022-09-12T17:20:03.607Z,43.00
2022-09-12T17:22:31.356Z,42.71
2022-09-12T17:25:00.406Z,42.47
2022-09-12T17:27:28.393Z,42.50
2022-09-12T17:29:56.133Z,42.29
2022-09-12T17:32:23.895Z,42.75
2022-09-12T17:34:51.730Z,42.87
2022-09-12T17:37:19.537Z,43.19
2022-09-12T17:39:47.592Z,42.91
2022-09-12T17:42:16.707Z,43.04
2022-09-12T17:44:44.429Z,43.31
2022-09-12T17:47:12.185Z,44.02
2022-09-12T17:49:40.245Z,44.14
2022-09-12T17:54:35.862Z,43.66
2022-09-12T17:57:04.973Z,44.48
2022-09-12T17:59:34.252Z,44.91
2022-09-12T18:02:12.985Z,45.10
2022-09-12T18:04:41.638Z,44.70
2022-09-12T18:07:09.396Z,44.60
2022-09-12T18:09:37.315Z,45.46
2022-09-12T18:12:06.385Z,45.48
2022-09-12T18:14:35.548Z,45.90
2022-09-12T18:17:03.258Z,45.96
2022-09-12T18:19:31.923Z,46.25
2022-09-12T18:21:59.637Z,46.10
2022-09-12T18:24:27.407Z,46.33
2022-09-12T18:26:56.554Z,46.52
2022-09-12T18:29:24.639Z,46.33
2022-09-12T18:31:53.701Z,46.48
2022-09-12T18:34:21.543Z,47.22
2022-09-12T18:36:51.477Z,47.15
2022-09-12T18:39:21.951Z,48.91
2022-09-12T18:41:51.897Z,50.23
2022-09-12T18:44:19.679Z,50.91
2022-09-12T18:46:47.502Z,51.55
2022-09-12T18:49:16.676Z,52.20
2022-09-12T18:51:44.735Z,52.47
2022-09-12T18:54:14.126Z,52.58
2022-09-12T18:56:43.871Z,53.30
2022-09-12T18:59:14.262Z,53.57
2022-09-12T19:01:42.688Z,53.96
2022-09-12T19:04:12.705Z,54.63
2022-09-12T19:06:43.738Z,54.71
2022-09-12T19:09:13.140Z,55.16
2022-09-12T19:11:48.495Z,55.38
2022-09-12T19:14:16.675Z,55.60
2022-09-12T19:16:44.664Z,55.92
2022-09-12T19:19:12.384Z,56.32
2022-09-12T19:21:42.302Z,56.50
2022-09-12T19:24:10.993Z,56.43
2022-09-12T19:26:40.140Z,56.97
2022-09-12T19:29:08.759Z,56.98
2022-09-12T19:31:36.927Z,57.55
2022-09-12T19:34:07.055Z,57.81
2022-09-12T19:36:51.183Z,58.13
2022-09-12T19:39:20.557Z,58.00
2022-09-12T19:41:49.215Z,58.48
2022-09-12T19:44:19.298Z,58.41
2022-09-12T19:46:47.164Z,58.39
2022-09-12T19:49:15.049Z,58.63
2022-09-12T19:51:43.785Z,58.98
2022-09-12T19:54:11.637Z,59.04
2022-09-12T19:56:40.861Z,59.29
2022-09-12T19:59:08.707Z,59.66
2022-09-12T20:01:37.596Z,59.65
2022-09-12T20:04:06.476Z,59.98
2022-09-12T20:06:34.419Z,60.08
2022-09-12T20:09:02.402Z,60.18
2022-09-12T20:11:31.026Z,60.05
2022-09-12T20:14:00.149Z,60.70
2022-09-12T20:16:29.542Z,60.45
2022-09-12T20:18:59.511Z,60.52
2022-09-12T20:21:31.727Z,60.05
2022-09-12T20:24:05.316Z,60.49
2022-09-12T20:26:33.975Z,60.29
2022-09-12T20:29:03.595Z,60.44
2022-09-12T20:31:31.992Z,60.66
2022-09-12T20:34:00.393Z,61.08
2022-09-12T20:36:28.400Z,61.29
2022-09-12T20:38:57.988Z,61.17
2022-09-12T20:41:26.993Z,61.15
2022-09-12T20:43:56.355Z,61.94
2022-09-12T20:46:27.581Z,61.45
2022-09-12T20:48:55.732Z,62.10
2022-09-12T20:51:26.557Z,61.98
2022-09-12T20:53:55.272Z,61.82
2022-09-12T20:56:23.660Z,61.72
2022-09-12T20:58:51.793Z,62.15
2022-09-12T21:01:20.362Z,62.33
2022-09-12T21:03:50.103Z,62.14
2022-09-12T21:06:19.071Z,62.70
2022-09-12T21:08:48.884Z,62.51
2022-09-12T21:11:17.357Z,62.41
2022-09-12T21:13:45.864Z,62.50
2022-09-12T21:16:15.485Z,62.99
2022-09-12T21:18:43.383Z,62.32
2022-09-12T21:21:14.194Z,63.20
2022-09-12T21:23:42.422Z,63.86
2022-09-12T21:26:10.509Z,63.77
2022-09-12T21:28:38.288Z,64.29
2022-09-12T21:31:06.665Z,64.59
2022-09-12T21:33:34.563Z,65.18
2022-09-12T21:36:03.816Z,65.35
2022-09-12T21:38:33.365Z,65.17
2022-09-12T21:41:05.678Z,65.53
2022-09-12T21:43:33.681Z,66.19
2022-09-12T21:46:02.412Z,65.99
2022-09-12T21:48:30.751Z,65.95
2022-09-12T21:50:58.676Z,65.80
2022-09-12T21:53:27.226Z,66.11
2022-09-12T21:56:01.088Z,66.26
2022-09-12T21:58:29.076Z,66.20
2022-09-12T22:00:56.937Z,66.85
2022-09-12T22:03:26.099Z,66.68
2022-09-12T22:05:58.042Z,66.84
2022-09-12T22:08:26.098Z,66.64
2022-09-12T22:10:53.896Z,67.09
2022-09-12T22:13:22.988Z,67.34
2022-09-12T22:15:51.908Z,67.54
2022-09-12T22:18:19.974Z,67.74
2022-09-12T22:20:47.732Z,67.37
2022-09-12T22:23:33.734Z,67.50
2022-09-12T22:26:02.756Z,67.89
2022-09-12T22:28:32.198Z,67.73
2022-09-12T22:30:59.960Z,68.02
2022-09-12T22:33:28.560Z,68.26
2022-09-12T22:35:56.475Z,68.86
2022-09-12T22:38:26.016Z,68.99
2022-09-12T22:40:53.882Z,68.78
2022-09-12T22:43:22.004Z,69.03
2022-09-12T22:45:51.351Z,69.42
2022-09-12T22:48:19.071Z,69.53
2022-09-12T22:50:46.789Z,69.85
2022-09-12T22:53:14.564Z,70.86
2022-09-12T22:55:44.114Z,71.01
2022-09-12T22:58:12.093Z,71.64
2022-09-12T23:00:40.164Z,71.57
2022-09-12T23:03:09.310Z,72.19
2022-09-12T23:05:37.784Z,72.21
2022-09-12T23:08:05.590Z,72.09
2022-09-12T23:10:36.212Z,72.05
2022-09-12T23:13:04.508Z,72.05
2022-09-12T23:15:32.490Z,72.23
2022-09-12T23:18:00.735Z,72.12
2022-09-12T23:20:30.272Z,72.35
2022-09-12T23:22:57.996Z,72.82
2022-09-12T23:25:26.157Z,73.41
2022-09-12T23:27:53.975Z,73.51
2022-09-12T23:30:22.204Z,73.28
2022-09-12T23:32:50.358Z,73.62
2022-09-12T23:35:19.391Z,74.39
2022-09-12T23:37:48.696Z,74.70
2022-09-12T23:40:17.236Z,75.01
2022-09-12T23:42:44.981Z,75.18
2022-09-12T23:45:12.734Z,75.05
2022-09-12T23:47:40.563Z,75.37
2022-09-12T23:50:08.817Z,75.54
2022-09-12T23:52:37.053Z,75.75
2022-09-12T23:55:07.279Z,75.76
2022-09-12T23:57:35.129Z,75.39
